createdAt,value
2022-11-14T00:00:24.483Z,61.4
2022-11-14T00:01:24.493Z,61.4
2022-11-14T00:02:24.528Z,60.4
2022-11-14T00:03:24.492Z,60.1
2022-11-14T00:04:29.343Z,60
2022-11-14T00:05:24.495Z,60.7
2022-11-14T00:06:24.576Z,60.4
2022-11-14T00:07:24.556Z,60.8
2022-11-14T00:08:24.465Z,60.4
2022-11-14T00:09:24.489Z,60.4
2022-11-14T00:10:24.489Z,60.5
2022-11-14T00:11:24.501Z,60.9
2022-11-14T00:12:24.488Z,61.4
2022-11-14T00:13:24.481Z,61.5
2022-11-14T00:14:24.482Z,60.5
2022-11-14T00:15:24.484Z,60.9
2022-11-14T00:16:24.517Z,61.3
2022-11-14T00:17:24.480Z,60.5
2022-11-14T00:18:24.484Z,60.8
2022-11-14T00:19:24.492Z,61.1
2022-11-14T00:20:24.492Z,61.3
2022-11-14T00:21:24.491Z,61.1
2022-11-14T00:22:24.486Z,61.4
2022-11-14T00:23:24.608Z,61.7
2022-11-14T00:24:24.479Z,61.7
2022-11-14T00:25:24.491Z,62.1
2022-11-14T00:26:24.499Z,61.9
2022-11-14T00:27:24.485Z,62.1
2022-11-14T00:28:24.481Z,61.1
2022-11-14T00:29:24.478Z,61.4
2022-11-14T00:30:24.517Z,61
2022-11-14T00:31:24.494Z,60.4
2022-11-14T00:32:24.477Z,60.9
2022-11-14T00:33:24.492Z,61.5
2022-11-14T00:34:24.487Z,60.5
2022-11-14T00:35:24.486Z,61.2
2022-11-14T00:36:24.493Z,60.4
2022-11-14T00:37:24.499Z,60.2
2022-11-14T00:38:24.546Z,59.6
2022-11-14T00:39:24.467Z,59.3
2022-11-14T00:40:24.489Z,58.8
2022-11-14T00:41:24.490Z,58.7
2022-11-14T00:42:24.474Z,58.2
2022-11-14T00:43:24.478Z,57.9
2022-11-14T00:44:24.494Z,57.8
2022-11-14T00:45:24.482Z,57.7
2022-11-14T00:46:24.496Z,57.5
2022-11-14T00:47:24.478Z,57.2
2022-11-14T00:48:24.519Z,57.1
2022-11-14T00:49:24.483Z,57.2
2022-11-14T00:50:24.476Z,57.3
2022-11-14T00:51:24.568Z,57.2
2022-11-14T00:52:24.486Z,57.3
2022-11-14T00:53:24.477Z,57.2
2022-11-14T00:54:24.616Z,57.3
2022-11-14T00:55:24.508Z,57.2
2022-11-14T00:56:24.482Z,57
2022-11-14T00:57:24.481Z,56.9
2022-11-14T00:58:24.493Z,56.9
2022-11-14T00:59:24.488Z,56.9
2022-11-14T01:00:24.524Z,56.7
2022-11-14T01:01:24.537Z,56.5
2022-11-14T01:02:24.492Z,56.6
2022-11-14T01:03:24.497Z,56.7
2022-11-14T01:04:24.570Z,56.6
2022-11-14T01:05:24.572Z,56.6
2022-11-14T01:06:24.485Z,56.6
2022-11-14T01:07:24.492Z,57
2022-11-14T01:08:24.482Z,56.6
2022-11-14T01:09:24.516Z,56.8
2022-11-14T01:10:24.502Z,57
2022-11-14T01:12:24.476Z,57.1
2022-11-14T01:13:24.499Z,57
2022-11-14T01:14:24.490Z,56.9
2022-11-14T01:15:24.475Z,57.2
2022-11-14T01:16:24.490Z,56.9
2022-11-14T01:17:24.488Z,57.1
2022-11-14T01:18:24.531Z,57.4
2022-11-14T01:19:24.478Z,57.5
2022-11-14T01:20:24.485Z,57.3
2022-11-14T01:21:24.497Z,57.3
2022-11-14T01:22:24.476Z,57.5
2022-11-14T01:23:24.530Z,57.4
2022-11-14T01:24:24.479Z,57.5
2022-11-14T01:25:24.601Z,57.3
2022-11-14T01:26:24.486Z,57.1
2022-11-14T01:27:24.468Z,56.9
2022-11-14T01:28:24.467Z,56.8
2022-11-14T01:29:24.489Z,57.2
2022-11-14T01:30:24.487Z,57.1
2022-11-14T01:31:24.487Z,57
2022-11-14T01:32:24.475Z,57.2
2022-11-14T01:33:24.492Z,57.4
2022-11-14T01:34:24.481Z,57.5
2022-11-14T01:35:24.490Z,57.6
2022-11-14T01:36:24.627Z,57.4
2022-11-14T01:37:24.530Z,57.6
2022-11-14T01:38:24.485Z,57.5
2022-11-14T01:39:24.494Z,57.5
2022-11-14T01:40:24.476Z,57.5
2022-11-14T01:41:24.494Z,57.6
2022-11-14T01:42:27.169Z,57.7
2022-11-14T01:43:24.472Z,58.2
2022-11-14T01:44:24.481Z,58
2022-11-14T01:45:24.493Z,58.2
2022-11-14T01:46:24.522Z,58.4
2022-11-14T01:47:24.469Z,58.5
2022-11-14T01:48:24.492Z,58.4
2022-11-14T01:49:24.477Z,58.2
2022-11-14T01:50:24.488Z,58.3
2022-11-14T01:51:24.505Z,58.5
2022-11-14T01:52:24.492Z,58.6
2022-11-14T01:53:24.483Z,59.1
2022-11-14T01:54:24.466Z,58.9
2022-11-14T01:55:24.490Z,58.7
2022-11-14T01:56:24.637Z,58.9
2022-11-14T01:57:24.474Z,59.9
2022-11-14T01:58:24.467Z,60
2022-11-14T01:59:24.487Z,59.5
2022-11-14T02:00:24.487Z,59.2
2022-11-14T02:01:24.534Z,59.3
2022-11-14T02:02:24.467Z,59.7
2022-11-14T02:03:24.497Z,59.5
2022-11-14T02:04:24.482Z,59.6
2022-11-14T02:05:24.474Z,59.8
2022-11-14T02:06:24.485Z,59.8
2022-11-14T02:07:24.544Z,59.8
2022-11-14T02:08:24.466Z,60.4
2022-11-14T02:09:24.478Z,60.5
2022-11-14T02:10:24.484Z,60.2
2022-11-14T02:11:24.485Z,60.4
2022-11-14T02:12:24.471Z,60.7
2022-11-14T02:13:24.486Z,61
2022-11-14T02:14:24.484Z,61.3
2022-11-14T02:15:24.481Z,60.8
2022-11-14T02:16:24.488Z,60.6
2022-11-14T02:17:31.672Z,61
2022-11-14T02:18:24.514Z,61.7
2022-11-14T02:19:24.481Z,61.6
2022-11-14T02:20:24.476Z,61.8
2022-11-14T02:21:24.486Z,61.6
2022-11-14T02:22:24.483Z,61.9
2022-11-14T02:23:24.475Z,61.6
2022-11-14T02:24:24.469Z,61.4
2022-11-14T02:25:24.495Z,61.7
2022-11-14T02:26:24.487Z,61.9
2022-11-14T02:27:24.597Z,62.1
2022-11-14T02:28:24.487Z,62.2
2022-11-14T02:29:24.486Z,62.1
2022-11-14T02:30:24.485Z,62.3
2022-11-14T02:31:24.489Z,62.4
2022-11-14T02:32:24.471Z,62.2
2022-11-14T02:33:24.500Z,62.6
2022-11-14T02:34:24.491Z,62.4
2022-11-14T02:35:24.508Z,62.6
2022-11-14T02:36:24.515Z,62.4
2022-11-14T02:37:24.477Z,62.5
2022-11-14T02:38:24.481Z,62.5
2022-11-14T02:39:24.484Z,62.7
2022-11-14T02:40:24.518Z,62.3
2022-11-14T02:41:24.497Z,62.3
2022-11-14T02:42:24.487Z,62.6
2022-11-14T02:43:24.472Z,62.8
2022-11-14T02:44:24.475Z,62.6
2022-11-14T02:45:24.483Z,62.8
2022-11-14T02:46:24.498Z,63.3
2022-11-14T02:47:24.529Z,63.4
2022-11-14T02:48:24.474Z,63.8
2022-11-14T02:49:24.487Z,63.9
2022-11-14T02:50:24.481Z,64
2022-11-14T02:51:24.498Z,64.2
2022-11-14T02:52:24.481Z,64.2
2022-11-14T02:53:24.491Z,64.3
2022-11-14T02:54:24.471Z,64
2022-11-14T02:55:24.469Z,64.2
2022-11-14T02:56:24.504Z,64.4
2022-11-14T02:57:24.478Z,64.2
2022-11-14T02:58:24.599Z,64.7
2022-11-14T02:59:24.503Z,65
2022-11-14T03:00:24.602Z,65.3
2022-11-14T03:02:24.472Z,66.1
2022-11-14T03:03:24.479Z,66.3
2022-11-14T03:04:24.718Z,66.3
2022-11-14T03:05:24.479Z,66.7
2022-11-14T03:06:24.572Z,67
2022-11-14T03:07:24.539Z,67
2022-11-14T03:08:24.470Z,67
2022-11-14T03:09:24.480Z,67.2
2022-11-14T03:10:24.489Z,67.1
2022-11-14T03:11:24.478Z,66.9
2022-11-14T03:12:24.483Z,66.8
2022-11-14T03:13:24.468Z,66.7
2022-11-14T03:14:24.475Z,66.7
2022-11-14T03:15:24.480Z,66.5
2022-11-14T03:16:24.483Z,66.6
2022-11-14T03:17:24.483Z,66.7
2022-11-14T03:18:24.493Z,66.5
2022-11-14T03:19:24.476Z,66.6
2022-11-14T03:20:24.498Z,66.5
2022-11-14T03:21:24.507Z,66.3
2022-11-14T03:22:24.491Z,66.2
2022-11-14T03:23:24.495Z,66
2022-11-14T03:24:24.503Z,66.1
2022-11-14T03:25:24.537Z,65.8
2022-11-14T03:26:24.488Z,65.7
2022-11-14T03:27:24.524Z,65.8
2022-11-14T03:28:24.473Z,65.8
2022-11-14T03:29:24.603Z,65.6
2022-11-14T03:30:24.471Z,65.7
2022-11-14T03:31:24.495Z,65.6
2022-11-14T03:32:24.474Z,65.5
2022-11-14T03:33:24.498Z,65.6
2022-11-14T03:34:24.478Z,65.8
2022-11-14T03:35:24.480Z,65.8
2022-11-14T03:36:24.509Z,65.8
2022-11-14T03:37:24.493Z,65.9
2022-11-14T03:39:24.483Z,65.6
2022-11-14T03:40:24.492Z,65.8
2022-11-14T03:41:34.755Z,65.7
2022-11-14T03:42:34.751Z,65.7
2022-11-14T03:43:34.767Z,65.7
2022-11-14T03:44:24.475Z,65.7
2022-11-14T03:45:24.497Z,66
2022-11-14T03:46:24.499Z,66
2022-11-14T03:47:24.484Z,66.1
2022-11-14T03:48:24.475Z,66.1
2022-11-14T03:50:24.478Z,66.1
2022-11-14T03:51:24.511Z,66.3
2022-11-14T03:52:24.470Z,66.3
2022-11-14T03:53:24.477Z,66.3
2022-11-14T03:54:24.531Z,66.3
2022-11-14T03:55:24.501Z,66.3
2022-11-14T03:56:24.495Z,66.4
2022-11-14T03:58:24.471Z,66.6
2022-11-14T03:59:24.473Z,66.6
2022-11-14T04:00:24.587Z,66.6
2022-11-14T04:01:24.603Z,66.6
2022-11-14T04:02:24.474Z,66.6
2022-11-14T04:03:24.486Z,66.6
2022-11-14T04:04:24.479Z,66.6
2022-11-14T04:05:24.473Z,66.6
2022-11-14T04:06:24.492Z,66.9
2022-11-14T04:07:24.561Z,67
2022-11-14T04:08:24.471Z,66.9
2022-11-14T04:09:24.469Z,66.9
2022-11-14T04:10:24.507Z,67
2022-11-14T04:11:24.575Z,67.1
2022-11-14T04:12:24.476Z,67.1
2022-11-14T04:13:24.468Z,67.3
2022-11-14T04:14:24.482Z,67.3
2022-11-14T04:15:24.477Z,67.4
2022-11-14T04:16:24.486Z,67.4
2022-11-14T04:17:24.500Z,67.3
2022-11-14T04:18:24.496Z,67.4
2022-11-14T04:19:24.482Z,67.4
2022-11-14T04:20:24.491Z,67.6
2022-11-14T04:21:24.502Z,67.8
2022-11-14T04:22:24.505Z,67.9
2022-11-14T04:23:24.494Z,67.8
2022-11-14T04:24:24.472Z,67.8
2022-11-14T04:25:24.517Z,68
2022-11-14T04:26:24.505Z,67.7
2022-11-14T04:27:24.466Z,67.8
2022-11-14T04:28:24.477Z,67.5
2022-11-14T04:29:24.470Z,67.5
2022-11-14T04:30:24.458Z,67.2
2022-11-14T04:31:24.635Z,67.3
2022-11-14T04:32:24.473Z,67.4
2022-11-14T04:33:24.502Z,67.2
2022-11-14T04:34:24.486Z,67.2
2022-11-14T04:35:24.467Z,67.4
2022-11-14T04:36:24.575Z,67.7
2022-11-14T04:37:24.469Z,67.8
2022-11-14T04:38:24.469Z,67.8
2022-11-14T04:40:24.470Z,68.1
2022-11-14T04:41:24.493Z,68.1
2022-11-14T04:42:24.469Z,67.9
2022-11-14T04:43:24.492Z,68
2022-11-14T04:44:24.457Z,68
2022-11-14T04:45:24.516Z,67.9
2022-11-14T04:46:24.488Z,68
2022-11-14T04:47:24.469Z,68.1
2022-11-14T04:48:24.501Z,68
2022-11-14T04:49:24.473Z,67.9
2022-11-14T04:50:24.486Z,68
2022-11-14T04:51:24.513Z,67.9
2022-11-14T04:52:24.481Z,68.1
2022-11-14T04:53:24.472Z,68
2022-11-14T04:54:24.484Z,68
2022-11-14T04:55:24.501Z,68
2022-11-14T04:56:24.480Z,68
2022-11-14T04:57:24.471Z,68.2
2022-11-14T04:58:24.471Z,68.3
2022-11-14T04:59:24.494Z,68.2
2022-11-14T05:00:24.480Z,68.1
2022-11-14T05:01:24.523Z,68.4
2022-11-14T05:02:24.492Z,68.4
2022-11-14T05:03:24.484Z,68.5
2022-11-14T05:04:24.468Z,68.5
2022-11-14T05:05:24.457Z,68.6
2022-11-14T05:06:24.493Z,68.4
2022-11-14T05:07:24.626Z,68.5
2022-11-14T05:08:24.471Z,68.5
2022-11-14T05:09:24.471Z,68.6
2022-11-14T05:10:24.460Z,68.6
2022-11-14T05:11:28.854Z,68.4
2022-11-14T05:12:24.471Z,68.5
2022-11-14T05:13:24.462Z,68.8
2022-11-14T05:14:24.463Z,69
2022-11-14T05:15:24.581Z,68.9
2022-11-14T05:16:24.476Z,69
2022-11-14T05:17:24.463Z,69
2022-11-14T05:18:24.484Z,69
2022-11-14T05:19:24.709Z,68.8
2022-11-14T05:20:24.457Z,68.6
2022-11-14T05:21:24.497Z,68.8
2022-11-14T05:22:24.476Z,69
2022-11-14T05:23:24.487Z,69.1
2022-11-14T05:24:24.473Z,69.1
2022-11-14T05:25:24.517Z,69.3
2022-11-14T05:26:24.487Z,69.4
2022-11-14T05:27:24.463Z,69.3
2022-11-14T05:28:24.477Z,69.2
2022-11-14T05:29:24.478Z,69.4
2022-11-14T05:30:24.472Z,69.4
2022-11-14T05:31:24.471Z,69.4
2022-11-14T05:32:24.461Z,69.5
2022-11-14T05:33:24.511Z,69.6
2022-11-14T05:34:24.452Z,69.5
2022-11-14T05:35:24.526Z,69.5
2022-11-14T05:36:24.509Z,69.5
2022-11-14T05:37:24.464Z,69.7
2022-11-14T05:38:24.460Z,69.5
2022-11-14T05:39:24.468Z,70
2022-11-14T05:40:24.469Z,69.9
2022-11-14T05:41:24.493Z,70
2022-11-14T05:42:24.480Z,70.1
2022-11-14T05:43:24.466Z,69.9
2022-11-14T05:44:24.471Z,70.3
2022-11-14T05:45:24.460Z,70.3
2022-11-14T05:46:24.481Z,70.4
2022-11-14T05:47:24.473Z,70.5
2022-11-14T05:48:24.480Z,70.5
2022-11-14T05:49:24.444Z,70.4
2022-11-14T05:50:24.453Z,70.6
2022-11-14T05:51:24.486Z,70.7
2022-11-14T05:52:24.467Z,70.4
2022-11-14T05:53:24.469Z,70.5
2022-11-14T05:54:24.473Z,70.6
2022-11-14T05:55:25.211Z,70.6
2022-11-14T05:56:24.476Z,70.6
2022-11-14T05:57:24.458Z,70.9
2022-11-14T05:58:24.462Z,70.8
2022-11-14T05:59:24.462Z,70.9
2022-11-14T06:00:24.457Z,71.2
2022-11-14T06:01:24.495Z,71
2022-11-14T06:02:24.496Z,71.1
2022-11-14T06:03:24.477Z,71.1
2022-11-14T06:04:24.490Z,71.1
2022-11-14T06:05:24.466Z,71.1
2022-11-14T06:06:24.482Z,71.2
2022-11-14T06:07:24.500Z,71.2
2022-11-14T06:08:24.455Z,71.1
2022-11-14T06:09:24.463Z,71.1
2022-11-14T06:10:24.488Z,71.2
2022-11-14T06:11:24.477Z,71.1
2022-11-14T06:12:24.466Z,70.9
2022-11-14T06:13:24.620Z,70.7
2022-11-14T06:14:24.476Z,70.8
2022-11-14T06:15:24.455Z,71
2022-11-14T06:16:24.477Z,71
2022-11-14T06:17:24.461Z,71
2022-11-14T06:18:24.470Z,70.7
2022-11-14T06:19:24.463Z,70.7
2022-11-14T06:20:24.465Z,70.5
2022-11-14T06:21:24.488Z,70.8
2022-11-14T06:22:24.469Z,71
2022-11-14T06:23:25.009Z,71.1
2022-11-14T06:24:24.490Z,71.3
2022-11-14T06:25:24.476Z,71.1
2022-11-14T06:26:24.471Z,71.4
2022-11-14T06:27:24.456Z,71.4
2022-11-14T06:28:24.459Z,72.2
2022-11-14T06:29:24.459Z,72.2
2022-11-14T06:30:24.482Z,72.4
2022-11-14T06:31:24.467Z,72.7
2022-11-14T06:32:24.472Z,73
2022-11-14T06:33:24.472Z,72.7
2022-11-14T06:34:24.476Z,72.7
2022-11-14T06:35:24.522Z,72.3
2022-11-14T06:36:24.496Z,71.8
2022-11-14T06:37:24.529Z,71.8
2022-11-14T06:38:24.461Z,71.5
2022-11-14T06:39:24.468Z,71.7
2022-11-14T06:40:24.454Z,71.8
2022-11-14T06:41:24.513Z,71.7
2022-11-14T06:42:24.484Z,71.8
2022-11-14T06:43:24.470Z,71.7
2022-11-14T06:44:29.654Z,71.9
2022-11-14T06:45:24.456Z,72.3
2022-11-14T06:46:24.487Z,72.3
2022-11-14T06:47:24.460Z,71.9
2022-11-14T06:48:24.471Z,72
2022-11-14T06:49:24.458Z,71.9
2022-11-14T06:50:24.452Z,71.8
2022-11-14T06:51:24.485Z,71.6
2022-11-14T06:52:24.477Z,71.5
2022-11-14T06:53:24.464Z,71.7
2022-11-14T06:54:24.466Z,71.5
2022-11-14T06:55:25.637Z,71.4
2022-11-14T06:56:24.481Z,71.4
2022-11-14T06:57:24.448Z,71.5
2022-11-14T06:58:24.466Z,71.2
2022-11-14T06:59:24.468Z,71.2
2022-11-14T07:00:24.454Z,71.3
2022-11-14T07:01:24.463Z,71
2022-11-14T07:02:24.466Z,70.9
2022-11-14T07:03:24.577Z,71
2022-11-14T07:04:24.450Z,71
2022-11-14T07:05:24.445Z,71.1
2022-11-14T07:06:24.521Z,71
2022-11-14T07:07:24.602Z,70.9
2022-11-14T07:08:24.459Z,70.8
2022-11-14T07:09:24.451Z,70.5
2022-11-14T07:10:24.476Z,70.5
2022-11-14T07:11:24.461Z,70.6
2022-11-14T07:12:24.460Z,70.5
2022-11-14T07:13:24.507Z,70.3
2022-11-14T07:14:24.456Z,70.4
2022-11-14T07:15:24.458Z,70.2
2022-11-14T07:16:24.483Z,70.2
2022-11-14T07:17:29.879Z,70
2022-11-14T07:18:24.464Z,70.2
2022-11-14T07:19:24.461Z,70.3
2022-11-14T07:20:24.463Z,70.4
2022-11-14T07:21:24.465Z,70.2
2022-11-14T07:22:24.460Z,70.4
2022-11-14T07:23:24.462Z,70.5
2022-11-14T07:24:24.452Z,70.4
2022-11-14T07:25:24.475Z,70.3
2022-11-14T07:26:24.498Z,70.2
2022-11-14T07:27:24.467Z,70.1
2022-11-14T07:28:24.454Z,70
2022-11-14T07:29:24.457Z,69.8
2022-11-14T07:30:24.459Z,69.6
2022-11-14T07:31:24.492Z,69.7
2022-11-14T07:32:24.448Z,69.7
2022-11-14T07:33:24.491Z,69.8
2022-11-14T07:34:24.452Z,69.8
2022-11-14T07:35:24.467Z,70
2022-11-14T07:36:24.527Z,70
2022-11-14T07:37:24.494Z,69.8
2022-11-14T07:38:24.509Z,70
2022-11-14T07:39:24.455Z,70
2022-11-14T07:40:24.450Z,69.9
2022-11-14T07:41:24.511Z,69.9
2022-11-14T07:42:24.455Z,69.9
2022-11-14T07:43:24.464Z,69.7
2022-11-14T07:44:24.460Z,69.7
2022-11-14T07:45:24.461Z,69.8
2022-11-14T07:46:24.459Z,69.9
2022-11-14T07:47:24.464Z,70.3
2022-11-14T07:48:24.472Z,70.6
2022-11-14T07:49:24.468Z,70.2
2022-11-14T07:51:24.522Z,69.7
2022-11-14T07:52:24.472Z,69.7
2022-11-14T07:53:24.592Z,69.6
2022-11-14T07:54:34.742Z,69.5
2022-11-14T07:55:34.749Z,69.6
2022-11-14T07:56:34.757Z,69.7
2022-11-14T07:57:24.444Z,69.5
2022-11-14T07:58:24.460Z,69.5
2022-11-14T07:59:24.467Z,69.3
2022-11-14T08:00:24.541Z,69.3
2022-11-14T08:01:24.520Z,69.2
2022-11-14T08:03:24.459Z,69.1
2022-11-14T08:04:24.450Z,69
2022-11-14T08:05:24.530Z,69
2022-11-14T08:06:24.464Z,68.8
2022-11-14T08:07:24.482Z,68.8
2022-11-14T08:08:24.451Z,68.7
2022-11-14T08:09:24.459Z,68.7
2022-11-14T08:10:24.462Z,68.7
2022-11-14T08:11:34.846Z,68.9
2022-11-14T08:12:24.457Z,69
2022-11-14T08:13:32.034Z,68.9
2022-11-14T08:14:24.454Z,69
2022-11-14T08:15:24.457Z,68.8
2022-11-14T08:16:24.476Z,68.7
2022-11-14T08:17:24.461Z,68.6
2022-11-14T08:18:24.461Z,69
2022-11-14T08:19:24.446Z,69.1
2022-11-14T08:20:24.449Z,69.1
2022-11-14T08:21:24.471Z,69.3
2022-11-14T08:22:24.448Z,69.3
2022-11-14T08:23:24.458Z,69.4
2022-11-14T08:24:24.528Z,69.5
2022-11-14T08:25:24.463Z,69.6
2022-11-14T08:26:24.478Z,69.4
2022-11-14T08:27:24.447Z,69.4
2022-11-14T08:28:24.442Z,69.6
2022-11-14T08:29:24.442Z,69.5
2022-11-14T08:30:24.462Z,69.7
2022-11-14T08:31:24.469Z,69.7
2022-11-14T08:32:24.457Z,69.8
2022-11-14T08:33:24.471Z,69.6
2022-11-14T08:34:24.456Z,69.6
2022-11-14T08:35:24.453Z,69.7
2022-11-14T08:36:24.481Z,70
2022-11-14T08:37:24.459Z,69.9
2022-11-14T08:38:24.469Z,69.9
2022-11-14T08:39:24.451Z,69.9
2022-11-14T08:40:24.489Z,69.7
2022-11-14T08:41:24.464Z,69.8
2022-11-14T08:42:24.503Z,69.9
2022-11-14T08:43:24.449Z,69.8
2022-11-14T08:44:24.456Z,69.8
2022-11-14T08:45:24.459Z,69.7
2022-11-14T08:46:24.461Z,69.6
2022-11-14T08:47:24.448Z,69.2
2022-11-14T08:48:24.521Z,69.2
2022-11-14T08:49:24.458Z,69.2
2022-11-14T08:50:24.506Z,69.1
2022-11-14T08:51:24.475Z,69.4
2022-11-14T08:52:24.534Z,69.3
2022-11-14T08:53:24.443Z,69.2
2022-11-14T08:54:24.436Z,69.2
2022-11-14T08:55:24.494Z,69.1
2022-11-14T08:56:24.459Z,69.5
2022-11-14T08:57:24.452Z,69.5
2022-11-14T08:58:24.461Z,69.6
2022-11-14T08:59:24.464Z,69.7
2022-11-14T09:00:24.521Z,69.4
2022-11-14T09:01:24.451Z,69.5
2022-11-14T09:02:24.459Z,69.5
2022-11-14T09:03:24.485Z,69.7
2022-11-14T09:04:24.493Z,69.7
2022-11-14T09:05:24.460Z,69.5
2022-11-14T09:06:24.466Z,69.6
2022-11-14T09:07:24.515Z,69.5
2022-11-14T09:08:24.457Z,69.5
2022-11-14T09:09:24.450Z,69.5
2022-11-14T09:10:24.468Z,69.7
2022-11-14T09:11:24.459Z,69.6
2022-11-14T09:12:24.483Z,69.4
2022-11-14T09:13:24.454Z,69.6
2022-11-14T09:14:24.452Z,69.5
2022-11-14T09:15:24.462Z,69.6
2022-11-14T09:16:24.476Z,69.4
2022-11-14T09:17:24.457Z,69.4
2022-11-14T09:18:24.462Z,69.4
2022-11-14T09:19:24.452Z,69.5
2022-11-14T09:20:29.846Z,69.5
2022-11-14T09:21:24.466Z,69.4
2022-11-14T09:23:24.455Z,69.4
2022-11-14T09:24:24.441Z,69.2
2022-11-14T09:25:24.451Z,69.3
2022-11-14T09:26:24.494Z,69.4
2022-11-14T09:27:24.445Z,69.6
2022-11-14T09:28:24.460Z,69.4
2022-11-14T09:29:24.463Z,69.6
2022-11-14T09:30:24.455Z,69.8
2022-11-14T09:31:24.449Z,69.7
2022-11-14T09:32:24.462Z,69.3
2022-11-14T09:33:24.473Z,69.4
2022-11-14T09:34:24.438Z,69.6
2022-11-14T09:35:24.437Z,69.6
2022-11-14T09:36:24.486Z,69.8
2022-11-14T09:37:24.452Z,69.6
2022-11-14T09:38:24.508Z,69.3
2022-11-14T09:39:24.471Z,69.3
2022-11-14T09:40:24.558Z,69.4
2022-11-14T09:41:24.656Z,69.6
2022-11-14T09:42:24.730Z,69.3
2022-11-14T09:43:24.470Z,69.4
2022-11-14T09:44:24.457Z,69.4
2022-11-14T09:45:24.444Z,69.3
2022-11-14T09:46:24.474Z,69.1
2022-11-14T09:47:24.477Z,69.2
2022-11-14T09:48:24.476Z,69
2022-11-14T09:49:24.444Z,69
2022-11-14T09:50:26.087Z,68.9
2022-11-14T09:51:24.478Z,69.1
2022-11-14T09:52:24.460Z,69.1
2022-11-14T09:53:24.447Z,69
2022-11-14T09:54:24.473Z,69.2
2022-11-14T09:55:24.466Z,69.3
2022-11-14T09:56:24.461Z,69.3
2022-11-14T09:57:24.501Z,69.3
2022-11-14T09:58:24.469Z,69.1
2022-11-14T09:59:24.462Z,68.8
2022-11-14T10:00:24.443Z,69.1
2022-11-14T10:01:24.495Z,69.3
2022-11-14T10:02:24.554Z,69.5
2022-11-14T10:03:24.479Z,69.5
2022-11-14T10:04:24.455Z,69.5
2022-11-14T10:05:24.458Z,69.4
2022-11-14T10:06:24.476Z,69.1
2022-11-14T10:07:24.549Z,69.3
2022-11-14T10:08:24.462Z,69.3
2022-11-14T10:09:28.886Z,69.3
2022-11-14T10:10:24.460Z,69
2022-11-14T10:11:24.509Z,69
2022-11-14T10:12:24.453Z,68.8
2022-11-14T10:13:24.471Z,68.8
2022-11-14T10:14:24.447Z,68.7
2022-11-14T10:15:25.801Z,68.8
2022-11-14T10:16:24.543Z,68.9
2022-11-14T10:17:24.459Z,69
2022-11-14T10:18:24.471Z,69.1
2022-11-14T10:19:24.457Z,68.6
2022-11-14T10:20:24.454Z,68.5
2022-11-14T10:21:24.520Z,68.5
2022-11-14T10:22:24.455Z,68.7
2022-11-14T10:23:24.465Z,68.6
2022-11-14T10:24:24.659Z,68.6
2022-11-14T10:25:24.460Z,68.7
2022-11-14T10:26:24.461Z,68.4
2022-11-14T10:27:24.452Z,68.5
2022-11-14T10:28:24.488Z,68.4
2022-11-14T10:29:24.460Z,68.3
2022-11-14T10:30:24.454Z,68.1
2022-11-14T10:31:24.459Z,68.2
2022-11-14T10:32:24.459Z,68.2
2022-11-14T10:33:24.476Z,68.4
2022-11-14T10:34:24.457Z,68.4
2022-11-14T10:35:24.449Z,68.6
2022-11-14T10:36:24.501Z,68
2022-11-14T10:37:24.452Z,67.8
2022-11-14T10:38:24.480Z,67.9
2022-11-14T10:39:24.458Z,67.8
2022-11-14T10:40:24.463Z,67.7
2022-11-14T10:41:50.140Z,67.8
2022-11-14T10:42:24.450Z,67.6
2022-11-14T10:43:24.456Z,67.3
2022-11-14T10:44:24.465Z,67.7
2022-11-14T10:45:24.457Z,67.6
2022-11-14T10:46:24.460Z,67.2
2022-11-14T10:47:24.462Z,67.4
2022-11-14T10:48:24.473Z,67.2
2022-11-14T10:49:24.463Z,67.4
2022-11-14T10:50:24.455Z,67
2022-11-14T10:51:24.478Z,66.6
2022-11-14T10:52:24.451Z,66.3
2022-11-14T10:53:24.447Z,66.8
2022-11-14T10:54:24.451Z,66.6
2022-11-14T10:55:49.607Z,66.9
2022-11-14T10:56:24.468Z,67.1
2022-11-14T10:57:24.461Z,66.8
2022-11-14T10:58:24.450Z,66.7
2022-11-14T10:59:24.514Z,66.9
2022-11-14T11:00:24.465Z,67
2022-11-14T11:01:24.545Z,66.3
2022-11-14T11:02:24.457Z,66.5
2022-11-14T11:03:24.490Z,66.5
2022-11-14T11:04:24.491Z,66.7
2022-11-14T11:05:24.462Z,66.6
2022-11-14T11:06:24.458Z,66.9
2022-11-14T11:07:24.512Z,66.6
2022-11-14T11:08:52.355Z,66.5
2022-11-14T11:09:24.531Z,66.8
2022-11-14T11:10:24.457Z,66.7
2022-11-14T11:11:24.475Z,66.5
2022-11-14T11:12:24.563Z,66.9
2022-11-14T11:13:24.459Z,66.8
2022-11-14T11:14:24.453Z,66.9
2022-11-14T11:15:24.470Z,66.8
2022-11-14T11:16:24.469Z,67
2022-11-14T11:17:26.831Z,67.2
2022-11-14T11:18:24.484Z,67.2
2022-11-14T11:19:24.447Z,67.2
2022-11-14T11:20:24.457Z,67.4
2022-11-14T11:21:24.619Z,67.7
2022-11-14T11:22:24.460Z,67.6
2022-11-14T11:23:24.449Z,67.8
2022-11-14T11:24:24.473Z,67.8
2022-11-14T11:25:24.458Z,67.7
2022-11-14T11:26:24.475Z,67.7
2022-11-14T11:27:24.455Z,67.6
2022-11-14T11:28:24.513Z,67.7
2022-11-14T11:29:24.474Z,67.8
2022-11-14T11:30:24.483Z,67.7
2022-11-14T11:31:24.522Z,67.5
2022-11-14T11:32:24.452Z,67.5
2022-11-14T11:33:24.519Z,67.4
2022-11-14T11:34:24.449Z,67.7
2022-11-14T11:35:24.457Z,67.8
2022-11-14T11:36:24.491Z,67.8
2022-11-14T11:37:24.479Z,67.7
2022-11-14T11:38:24.439Z,67.6
2022-11-14T11:39:24.454Z,67.6
2022-11-14T11:40:24.463Z,67.3
2022-11-14T11:42:24.445Z,67.1
2022-11-14T11:43:38.421Z,67.1
2022-11-14T11:44:24.453Z,66.5
2022-11-14T11:45:24.452Z,66.6
2022-11-14T11:46:24.487Z,66.4
2022-11-14T11:47:24.461Z,66.7
2022-11-14T11:48:24.476Z,66.5
2022-11-14T11:50:24.478Z,66.6
2022-11-14T11:51:24.465Z,66.4
2022-11-14T11:52:24.463Z,65.9
2022-11-14T11:53:24.467Z,66
2022-11-14T11:54:24.466Z,65.7
2022-11-14T11:55:24.455Z,65.6
2022-11-14T11:56:24.461Z,65.9
2022-11-14T11:57:24.478Z,66.1
2022-11-14T11:58:24.441Z,65.7
2022-11-14T11:59:24.448Z,65.8
2022-11-14T12:00:24.459Z,65.8
2022-11-14T12:01:24.593Z,65.8
2022-11-14T12:02:24.603Z,65.8
2022-11-14T12:03:24.655Z,65.8
2022-11-14T12:04:24.465Z,65.7
2022-11-14T12:05:24.461Z,65.7
2022-11-14T12:06:24.537Z,65.4
2022-11-14T12:07:24.550Z,64.8
2022-11-14T12:08:24.476Z,65.1
2022-11-14T12:09:29.451Z,65.4
2022-11-14T12:10:24.455Z,65.5
2022-11-14T12:11:24.498Z,65.7
2022-11-14T12:12:24.458Z,65.6
2022-11-14T12:13:24.460Z,65.4
2022-11-14T12:14:24.499Z,65.2
2022-11-14T12:15:24.464Z,65.1
2022-11-14T12:16:24.468Z,65.4
2022-11-14T12:17:24.462Z,65.3
2022-11-14T12:18:24.469Z,64.9
2022-11-14T12:19:24.463Z,65.4
2022-11-14T12:20:24.450Z,65.3
2022-11-14T12:21:24.458Z,65.5
2022-11-14T12:22:24.467Z,65.4
2022-11-14T12:23:24.452Z,65.3
2022-11-14T12:24:24.446Z,65.1
2022-11-14T12:25:24.442Z,65
2022-11-14T12:26:24.468Z,65
2022-11-14T12:27:24.548Z,64.8
2022-11-14T12:28:24.454Z,64.8
2022-11-14T12:29:25.487Z,64.8
2022-11-14T12:30:24.458Z,64.7
2022-11-14T12:31:24.460Z,64.7
2022-11-14T12:32:24.492Z,64.7
2022-11-14T12:33:24.470Z,65
2022-11-14T12:34:24.565Z,65.1
2022-11-14T12:35:24.575Z,65.2
2022-11-14T12:36:24.486Z,65.3
2022-11-14T12:37:24.575Z,65.1
2022-11-14T12:38:24.601Z,64.9
2022-11-14T12:39:24.708Z,65.1
2022-11-14T12:40:24.580Z,65.1
2022-11-14T12:41:24.765Z,65.1
2022-11-14T12:42:24.499Z,65
2022-11-14T12:43:24.505Z,65
2022-11-14T12:44:24.501Z,65.3
2022-11-14T12:45:24.447Z,65.5
2022-11-14T12:46:24.471Z,64.8
2022-11-14T12:47:24.464Z,64.9
2022-11-14T12:48:24.500Z,65.4
2022-11-14T12:49:24.468Z,65.1
2022-11-14T12:50:24.458Z,64.8
2022-11-14T12:51:24.515Z,64.9
2022-11-14T12:52:24.467Z,65.2
2022-11-14T12:53:24.465Z,65.2
2022-11-14T12:54:24.459Z,65.2
2022-11-14T12:55:24.444Z,65.1
2022-11-14T12:56:24.476Z,65.7
2022-11-14T12:57:24.448Z,65.8
2022-11-14T12:58:24.456Z,65.9
2022-11-14T12:59:24.455Z,66
2022-11-14T13:01:24.547Z,65.8
2022-11-14T13:02:24.467Z,65.8
2022-11-14T13:03:24.501Z,65.8
2022-11-14T13:04:24.469Z,65.8
2022-11-14T13:05:24.454Z,66
2022-11-14T13:06:24.464Z,66.5
2022-11-14T13:07:25.377Z,66.5
2022-11-14T13:08:24.465Z,66.4
2022-11-14T13:09:24.454Z,66.2
2022-11-14T13:10:24.455Z,66.2
2022-11-14T13:11:24.508Z,66.1
2022-11-14T13:12:24.523Z,66.1
2022-11-14T13:13:24.468Z,66.3
2022-11-14T13:14:24.459Z,66.1
2022-11-14T13:15:24.461Z,66.2
2022-11-14T13:16:24.466Z,66.3
2022-11-14T13:17:24.587Z,66.6
2022-11-14T13:18:24.477Z,66.4
2022-11-14T13:19:24.459Z,66.5
2022-11-14T13:20:24.472Z,66.4
2022-11-14T13:21:24.475Z,66.4
2022-11-14T13:22:24.460Z,66.1
2022-11-14T13:23:24.449Z,66.6
2022-11-14T13:24:24.457Z,66.5
2022-11-14T13:25:24.458Z,66.8
2022-11-14T13:26:24.470Z,66.4
2022-11-14T13:27:39.173Z,66.3
2022-11-14T13:28:25.183Z,66.2
2022-11-14T13:29:24.501Z,66.4
2022-11-14T13:30:24.449Z,66.3
2022-11-14T13:31:24.482Z,66
2022-11-14T13:32:24.461Z,66.3
2022-11-14T13:33:24.471Z,66.4
2022-11-14T13:34:24.490Z,66.6
2022-11-14T13:35:24.447Z,66.4